createdAt,value
2023-05-17T00:00:37.972Z,77.40
2023-05-17T00:02:46.973Z,78.00
2023-05-17T00:04:54.508Z,78.00
2023-05-17T00:07:01.820Z,77.90
2023-05-17T00:09:08.894Z,77.60
2023-05-17T00:11:16.334Z,77.30
2023-05-17T00:13:23.620Z,76.80
2023-05-17T00:15:31.147Z,76.60
2023-05-17T00:17:39.112Z,76.50
2023-05-17T00:19:48.169Z,76.50
2023-05-17T00:21:55.623Z,76.30
2023-05-17T00:24:02.803Z,76.10
2023-05-17T00:26:10.000Z,76.10
2023-05-17T00:28:17.523Z,76.10
2023-05-17T00:30:24.706Z,75.80
2023-05-17T00:32:32.015Z,75.80
2023-05-17T00:34:39.071Z,75.30
2023-05-17T00:36:48.146Z,74.50
2023-05-17T00:38:55.279Z,74.00
2023-05-17T00:41:02.506Z,73.70
2023-05-17T00:43:09.637Z,73.10
2023-05-17T00:45:17.126Z,72.60
2023-05-17T00:47:24.138Z,72.10
2023-05-17T00:49:32.003Z,71.80
2023-05-17T00:51:40.079Z,71.50
2023-05-17T00:53:49.448Z,71.20
2023-05-17T00:55:57.441Z,71.00
2023-05-17T00:58:04.879Z,70.90
2023-05-17T01:00:12.989Z,70.70
2023-05-17T01:02:20.877Z,70.30
2023-05-17T01:04:28.751Z,69.50
2023-05-17T01:06:36.675Z,69.40
2023-05-17T01:08:48.627Z,69.00
2023-05-17T01:11:04.896Z,68.30
2023-05-17T01:13:18.806Z,67.60
2023-05-17T01:15:30.064Z,65.90
2023-05-17T01:17:44.012Z,66.50
2023-05-17T01:20:10.319Z,66.30
2023-05-17T01:22:29.665Z,65.90
2023-05-17T01:24:48.977Z,65.80
2023-05-17T01:27:00.000Z,65.80
2023-05-17T01:29:11.638Z,65.40
2023-05-17T01:31:19.690Z,65.10
2023-05-17T01:33:27.772Z,64.70
2023-05-17T01:35:35.078Z,64.90
2023-05-17T01:37:42.525Z,65.00
2023-05-17T01:39:50.572Z,64.90
2023-05-17T01:42:08.449Z,64.80
2023-05-17T01:44:21.677Z,64.70
2023-05-17T01:46:31.999Z,64.40
2023-05-17T01:48:43.035Z,64.60
2023-05-17T01:50:54.123Z,64.10
2023-05-17T01:53:10.933Z,63.80
2023-05-17T01:55:29.580Z,63.40
2023-05-17T01:57:41.213Z,63.10
2023-05-17T01:59:49.062Z,63.00
2023-05-17T02:01:59.010Z,62.70
2023-05-17T02:04:06.062Z,62.50
2023-05-17T02:06:13.492Z,63.20
2023-05-17T02:08:21.459Z,63.20
2023-05-17T02:10:29.071Z,63.10
2023-05-17T02:12:38.453Z,62.60
2023-05-17T02:14:45.992Z,62.00
2023-05-17T02:16:53.436Z,61.80
2023-05-17T02:19:00.926Z,61.30
2023-05-17T02:21:08.740Z,61.10
2023-05-17T02:23:16.627Z,60.90
2023-05-17T02:25:23.749Z,60.50
2023-05-17T02:27:31.387Z,60.30
2023-05-17T02:29:42.202Z,59.80
2023-05-17T02:31:49.694Z,59.60
2023-05-17T02:33:58.099Z,59.70
2023-05-17T02:36:05.341Z,59.80
2023-05-17T02:38:12.622Z,59.50
2023-05-17T02:40:21.664Z,59.20
2023-05-17T02:42:28.929Z,59.30
2023-05-17T02:44:36.060Z,59.10
2023-05-17T02:46:45.812Z,58.80
2023-05-17T02:48:52.945Z,58.60
2023-05-17T02:51:00.011Z,58.60
2023-05-17T02:53:07.295Z,57.70
2023-05-17T02:55:14.525Z,57.90
2023-05-17T02:57:21.810Z,57.50
2023-05-17T02:59:29.605Z,57.70
2023-05-17T03:01:37.452Z,57.20
2023-05-17T03:03:47.188Z,57.50
2023-05-17T03:05:55.403Z,56.80
2023-05-17T03:08:03.298Z,56.80
2023-05-17T03:10:12.428Z,56.80
2023-05-17T03:12:23.651Z,56.10
2023-05-17T03:14:31.150Z,55.70
2023-05-17T03:16:38.581Z,55.40
2023-05-17T03:18:48.126Z,55.30
2023-05-17T03:20:55.925Z,55.50
2023-05-17T03:23:03.561Z,55.50
2023-05-17T03:25:13.143Z,55.60
2023-05-17T03:27:20.842Z,55.80
2023-05-17T03:29:28.934Z,55.10
2023-05-17T03:31:36.885Z,53.00
2023-05-17T03:33:44.008Z,53.70
2023-05-17T03:35:53.704Z,53.10
2023-05-17T03:38:01.146Z,53.10
2023-05-17T03:40:09.456Z,52.40
2023-05-17T03:42:16.687Z,53.50
2023-05-17T03:44:24.393Z,54.00
2023-05-17T03:46:33.096Z,52.60
2023-05-17T03:48:40.881Z,52.10
2023-05-17T03:50:49.711Z,52.20
2023-05-17T03:52:59.507Z,52.10
2023-05-17T03:55:07.050Z,52.30
2023-05-17T03:57:14.592Z,52.60
2023-05-17T03:59:22.437Z,52.20
2023-05-17T04:01:30.180Z,52.30
2023-05-17T04:03:38.489Z,51.10
2023-05-17T04:05:47.777Z,50.80
2023-05-17T04:07:55.111Z,50.60
2023-05-17T04:10:04.798Z,51.20
2023-05-17T04:12:13.204Z,52.10
2023-05-17T04:14:21.411Z,51.80
2023-05-17T04:16:28.540Z,51.40
2023-05-17T04:18:37.995Z,51.20
2023-05-17T04:20:45.399Z,50.10
2023-05-17T04:22:53.004Z,50.30
2023-05-17T04:25:00.397Z,51.60
2023-05-17T04:27:11.018Z,50.90
2023-05-17T04:29:18.089Z,50.80
2023-05-17T04:31:25.366Z,50.20
2023-05-17T04:33:32.521Z,50.30
2023-05-17T04:35:40.446Z,48.90
2023-05-17T04:37:47.683Z,50.20
2023-05-17T04:40:01.877Z,50.00
2023-05-17T04:42:13.320Z,49.70
2023-05-17T04:44:26.580Z,50.20
2023-05-17T04:46:34.025Z,49.90
2023-05-17T04:48:41.711Z,49.20
2023-05-17T04:50:50.004Z,49.30
2023-05-17T04:52:57.307Z,48.30
2023-05-17T04:55:04.741Z,48.90
2023-05-17T04:57:14.073Z,48.50
2023-05-17T04:59:35.284Z,48.40
2023-05-17T05:01:42.978Z,48.40
2023-05-17T05:03:50.690Z,48.20
2023-05-17T05:05:58.081Z,47.70
2023-05-17T05:08:05.497Z,48.20
2023-05-17T05:10:13.800Z,48.90
2023-05-17T05:12:23.594Z,49.40
2023-05-17T05:14:31.235Z,47.30
2023-05-17T05:16:38.724Z,47.70
2023-05-17T05:18:46.316Z,47.20
2023-05-17T05:20:53.802Z,47.50
2023-05-17T05:23:02.113Z,47.70
2023-05-17T05:25:10.217Z,47.70
2023-05-17T05:27:17.804Z,47.90
2023-05-17T05:29:26.571Z,47.70
2023-05-17T05:31:34.062Z,47.00
2023-05-17T05:33:44.088Z,47.70
2023-05-17T05:35:51.450Z,47.50
2023-05-17T05:37:58.630Z,46.30
2023-05-17T05:40:06.325Z,46.60
2023-05-17T05:42:13.559Z,46.70
2023-05-17T05:44:20.688Z,47.10
2023-05-17T05:46:30.940Z,47.10
2023-05-17T05:48:42.714Z,46.70
2023-05-17T05:50:49.403Z,46.70
2023-05-17T05:53:07.080Z,46.20
2023-05-17T05:55:22.247Z,46.90
2023-05-17T05:57:29.562Z,47.60
2023-05-17T05:59:37.178Z,47.60
2023-05-17T06:01:46.654Z,46.60
2023-05-17T06:03:54.100Z,47.40
2023-05-17T06:06:01.308Z,46.30
2023-05-17T06:08:09.179Z,46.50
2023-05-17T06:10:16.270Z,46.90
2023-05-17T06:12:23.523Z,46.70
2023-05-17T06:14:31.324Z,46.50
2023-05-17T06:16:38.828Z,46.00
2023-05-17T06:18:51.405Z,46.40
2023-05-17T06:20:58.977Z,46.00
2023-05-17T06:23:06.268Z,46.10
2023-05-17T06:25:14.239Z,46.10
2023-05-17T06:27:21.803Z,46.40
2023-05-17T06:29:29.379Z,45.10
2023-05-17T06:31:36.729Z,44.90
2023-05-17T06:33:46.141Z,44.80
2023-05-17T06:35:57.620Z,44.30
2023-05-17T06:38:05.643Z,43.60
2023-05-17T06:40:16.561Z,43.40
2023-05-17T06:42:24.364Z,42.80
2023-05-17T06:44:31.887Z,43.50
2023-05-17T06:46:39.436Z,43.70
2023-05-17T06:48:50.792Z,43.90
2023-05-17T06:50:58.772Z,43.30
2023-05-17T06:53:06.106Z,44.10
2023-05-17T06:55:13.862Z,44.40
2023-05-17T06:57:20.874Z,44.20
2023-05-17T06:59:28.119Z,44.00
2023-05-17T07:01:36.208Z,44.40
2023-05-17T07:03:43.942Z,44.60
2023-05-17T07:05:53.029Z,45.70
2023-05-17T07:08:00.312Z,45.40
2023-05-17T07:10:07.714Z,44.70
2023-05-17T07:12:15.103Z,44.40
2023-05-17T07:14:22.116Z,44.70
2023-05-17T07:16:29.450Z,44.50
2023-05-17T07:18:36.891Z,44.50
2023-05-17T07:20:47.090Z,44.80
2023-05-17T07:22:56.370Z,44.90
2023-05-17T07:25:04.166Z,45.10
2023-05-17T07:27:11.465Z,45.60
2023-05-17T07:29:19.065Z,45.00
2023-05-17T07:31:26.279Z,44.90
2023-05-17T07:33:33.887Z,44.70
2023-05-17T07:35:41.000Z,45.10
2023-05-17T07:37:48.440Z,44.70
2023-05-17T07:40:00.057Z,45.10
2023-05-17T07:42:07.252Z,45.10
2023-05-17T07:44:14.590Z,45.70
2023-05-17T07:46:21.774Z,45.80
2023-05-17T07:48:29.059Z,45.70
2023-05-17T07:50:37.109Z,46.60
2023-05-17T07:52:44.444Z,46.70
2023-05-17T07:54:51.997Z,45.90
2023-05-17T07:57:01.327Z,45.00
2023-05-17T07:59:08.548Z,44.90
2023-05-17T08:01:15.582Z,44.40
2023-05-17T08:03:23.326Z,43.70
2023-05-17T08:05:30.941Z,44.50
2023-05-17T08:07:38.908Z,44.70
2023-05-17T08:09:46.515Z,45.40
2023-05-17T08:11:53.832Z,45.00
2023-05-17T08:14:02.648Z,45.50
2023-05-17T08:16:14.320Z,44.60
2023-05-17T08:18:22.089Z,44.90
2023-05-17T08:20:29.480Z,45.40
2023-05-17T08:22:41.779Z,45.30
2023-05-17T08:24:49.627Z,44.70
2023-05-17T08:26:57.637Z,44.60
2023-05-17T08:29:07.386Z,44.00
2023-05-17T08:31:14.938Z,44.90
2023-05-17T08:33:24.547Z,44.70
2023-05-17T08:35:32.637Z,44.10
2023-05-17T08:37:40.293Z,44.70
2023-05-17T08:39:47.364Z,45.00
2023-05-17T08:41:55.118Z,44.80
2023-05-17T08:44:02.707Z,44.90
2023-05-17T08:46:13.322Z,45.10
2023-05-17T08:48:20.974Z,43.60
2023-05-17T08:50:31.041Z,42.80
2023-05-17T08:52:40.833Z,43.50
2023-05-17T08:54:48.396Z,43.60
2023-05-17T08:56:59.570Z,43.70
2023-05-17T08:59:08.188Z,43.70
2023-05-17T09:01:17.834Z,43.10
2023-05-17T09:03:26.877Z,44.70
2023-05-17T09:05:34.111Z,44.50
2023-05-17T09:07:41.831Z,44.90
2023-05-17T09:09:49.163Z,45.10
2023-05-17T09:11:56.548Z,45.20
2023-05-17T09:14:04.550Z,44.60
2023-05-17T09:16:19.307Z,44.50
2023-05-17T09:18:34.964Z,44.40
2023-05-17T09:20:43.603Z,44.90
2023-05-17T09:22:53.479Z,45.70
2023-05-17T09:25:03.751Z,45.40
2023-05-17T09:27:10.888Z,45.90
2023-05-17T09:29:19.398Z,45.70
2023-05-17T09:31:28.174Z,45.90
2023-05-17T09:33:35.538Z,46.50
2023-05-17T09:35:43.654Z,45.70
2023-05-17T09:37:51.298Z,46.50
2023-05-17T09:39:59.503Z,46.20
2023-05-17T09:42:07.609Z,46.10
2023-05-17T09:44:15.921Z,46.60
2023-05-17T09:46:24.583Z,46.60
2023-05-17T09:48:34.245Z,46.60
2023-05-17T09:50:46.572Z,46.90
2023-05-17T09:52:53.808Z,47.20
2023-05-17T09:55:02.212Z,47.10
2023-05-17T09:57:11.457Z,47.00
2023-05-17T09:59:19.703Z,46.90
2023-05-17T10:01:29.075Z,48.00
2023-05-17T10:03:39.224Z,47.90
2023-05-17T10:05:48.928Z,48.00
2023-05-17T10:07:59.652Z,47.80
2023-05-17T10:10:08.002Z,48.00
2023-05-17T10:12:17.185Z,47.90
2023-05-17T10:14:29.609Z,48.30
2023-05-17T10:16:38.205Z,49.30
2023-05-17T10:18:47.989Z,50.30
2023-05-17T10:20:56.056Z,49.40
2023-05-17T10:23:07.270Z,49.60
2023-05-17T10:25:15.535Z,49.60
2023-05-17T10:27:23.736Z,50.30
2023-05-17T10:29:32.557Z,51.30
2023-05-17T10:31:39.744Z,52.10
2023-05-17T10:33:53.502Z,52.60
2023-05-17T10:36:01.422Z,53.00
2023-05-17T10:38:08.757Z,53.30
2023-05-17T10:40:16.330Z,53.50
2023-05-17T10:42:25.528Z,53.90
2023-05-17T10:44:46.889Z,54.50
2023-05-17T10:46:59.292Z,54.80
2023-05-17T10:49:07.340Z,55.30
2023-05-17T10:51:15.293Z,55.50
2023-05-17T10:53:23.038Z,55.60
2023-05-17T10:55:40.312Z,55.50
2023-05-17T10:57:51.402Z,55.30
2023-05-17T11:00:04.906Z,55.00
2023-05-17T11:02:13.165Z,54.80
2023-05-17T11:04:28.823Z,54.90
2023-05-17T11:06:40.707Z,55.40
2023-05-17T11:08:49.658Z,56.40
2023-05-17T11:11:16.965Z,57.10
2023-05-17T11:13:29.275Z,57.30
2023-05-17T11:15:37.981Z,57.40
2023-05-17T11:17:57.454Z,57.70
2023-05-17T11:20:13.762Z,57.20
2023-05-17T11:22:21.936Z,56.90
2023-05-17T11:24:30.365Z,56.70
2023-05-17T11:26:41.079Z,56.50
2023-05-17T11:28:48.571Z,56.80
2023-05-17T11:31:04.915Z,56.60
2023-05-17T11:33:24.942Z,56.60
2023-05-17T11:35:41.349Z,57.30
2023-05-17T11:37:50.482Z,58.30
2023-05-17T11:40:08.972Z,58.00
2023-05-17T11:42:28.799Z,57.20
2023-05-17T11:44:36.800Z,57.10
2023-05-17T11:46:46.131Z,62.20
2023-05-17T11:48:55.444Z,64.50
2023-05-17T11:51:02.809Z,65.30
2023-05-17T11:53:11.206Z,65.70
2023-05-17T11:55:19.517Z,65.40
2023-05-17T11:57:32.543Z,66.10
2023-05-17T11:59:42.174Z,65.80
2023-05-17T12:01:51.968Z,66.20
2023-05-17T12:04:01.381Z,67.70
2023-05-17T12:06:12.553Z,68.90
2023-05-17T12:08:21.138Z,68.80
2023-05-17T12:10:29.577Z,69.30
2023-05-17T12:12:37.705Z,69.30
2023-05-17T12:14:49.344Z,70.20
2023-05-17T12:17:00.368Z,71.20
2023-05-17T12:19:07.672Z,71.20
2023-05-17T12:21:17.701Z,70.00
2023-05-17T12:23:32.215Z,68.70
2023-05-17T12:25:39.487Z,67.90
2023-05-17T12:27:46.817Z,68.30
2023-05-17T12:29:54.324Z,69.90
2023-05-17T12:34:27.676Z,72.00
2023-05-17T12:36:36.380Z,71.60
2023-05-17T12:38:44.911Z,71.00
2023-05-17T12:40:52.643Z,69.90
2023-05-17T12:43:06.323Z,69.40
2023-05-17T12:45:15.555Z,70.60
2023-05-17T12:47:22.527Z,71.90
2023-05-17T12:49:31.601Z,72.90
2023-05-17T12:51:45.887Z,73.70
2023-05-17T12:53:56.867Z,74.20
2023-05-17T12:56:04.000Z,74.20
2023-05-17T12:58:11.304Z,73.90
2023-05-17T13:00:19.596Z,73.10
2023-05-17T13:02:27.036Z,71.60
2023-05-17T13:04:39.055Z,70.80
2023-05-17T13:06:51.085Z,70.00
2023-05-17T13:09:03.580Z,69.40
2023-05-17T13:11:15.730Z,69.30
2023-05-17T13:13:23.681Z,70.90
2023-05-17T13:15:33.265Z,71.10
2023-05-17T13:17:45.765Z,69.80
2023-05-17T13:19:55.290Z,68.80
2023-05-17T13:22:02.800Z,68.20
2023-05-17T13:24:12.245Z,68.20
2023-05-17T13:26:19.776Z,68.90
2023-05-17T13:28:27.476Z,69.30
2023-05-17T13:30:34.466Z,69.10
2023-05-17T13:32:42.216Z,68.00
2023-05-17T13:34:49.994Z,68.80
2023-05-17T13:36:59.983Z,68.80
2023-05-17T13:39:07.388Z,69.50
2023-05-17T13:41:15.012Z,70.00
2023-05-17T13:43:22.410Z,69.80
2023-05-17T13:45:30.004Z,69.60
2023-05-17T13:47:37.291Z,68.80
2023-05-17T13:49:47.115Z,67.90
2023-05-17T13:51:54.419Z,67.40
2023-05-17T13:54:05.164Z,67.30
2023-05-17T13:56:13.118Z,66.60
2023-05-17T13:58:20.541Z,66.00
2023-05-17T14:00:28.190Z,65.20
2023-05-17T14:02:35.910Z,65.10
2023-05-17T14:04:43.303Z,64.90
2023-05-17T14:06:53.147Z,64.30
2023-05-17T14:09:04.462Z,63.60
2023-05-17T14:11:12.640Z,62.80
2023-05-17T14:13:19.992Z,62.70
2023-05-17T14:15:28.593Z,62.60
2023-05-17T14:17:35.952Z,62.40
2023-05-17T14:19:43.899Z,62.30
2023-05-17T14:21:51.229Z,62.20
2023-05-17T14:23:58.561Z,62.10
2023-05-17T14:26:08.408Z,62.10
2023-05-17T14:28:16.091Z,62.50
2023-05-17T14:30:23.687Z,62.70
2023-05-17T14:32:31.417Z,63.10
2023-05-17T14:34:38.975Z,63.40
2023-05-17T14:36:46.412Z,63.60
2023-05-17T14:38:54.006Z,63.50
2023-05-17T14:41:03.324Z,64.10
2023-05-17T14:43:12.413Z,64.70
2023-05-17T14:45:19.450Z,66.30
2023-05-17T14:47:27.538Z,66.20
2023-05-17T14:49:34.926Z,67.20
2023-05-17T14:51:42.315Z,66.90
2023-05-17T14:53:50.058Z,66.40
2023-05-17T14:55:57.140Z,66.70
2023-05-17T14:58:04.740Z,66.20
2023-05-17T15:00:14.778Z,66.40
2023-05-17T15:02:22.686Z,66.60
2023-05-17T15:04:29.943Z,66.80
2023-05-17T15:06:37.551Z,67.20
2023-05-17T15:08:44.731Z,67.00
2023-05-17T15:10:52.937Z,67.90
2023-05-17T15:12:59.996Z,69.80
2023-05-17T15:15:07.675Z,70.10
2023-05-17T15:17:16.803Z,71.30
2023-05-17T15:19:24.418Z,71.90
2023-05-17T15:21:31.562Z,71.10
2023-05-17T15:23:38.842Z,71.10
2023-05-17T15:25:46.083Z,71.80
2023-05-17T15:27:54.240Z,72.80
2023-05-17T15:30:01.673Z,73.20
2023-05-17T15:32:09.724Z,73.00
2023-05-17T15:34:18.936Z,72.00
2023-05-17T15:36:26.638Z,70.80
2023-05-17T15:38:33.915Z,70.90
2023-05-17T15:40:41.522Z,70.60
2023-05-17T15:42:48.915Z,71.80
2023-05-17T15:44:56.448Z,72.90
2023-05-17T15:47:03.781Z,73.20
2023-05-17T15:49:11.470Z,73.70
2023-05-17T15:51:20.604Z,73.40
2023-05-17T15:53:28.574Z,74.60
2023-05-17T15:55:35.889Z,74.50
2023-05-17T15:57:43.837Z,74.60
2023-05-17T15:59:51.277Z,74.80
2023-05-17T16:01:58.867Z,74.70
2023-05-17T16:04:05.864Z,73.20
2023-05-17T16:06:13.232Z,71.40
2023-05-17T16:08:22.049Z,70.00
2023-05-17T16:10:29.397Z,68.90
2023-05-17T16:12:36.977Z,67.90
2023-05-17T16:14:45.383Z,67.00
2023-05-17T16:16:52.881Z,66.10
2023-05-17T16:19:00.383Z,65.70
2023-05-17T16:21:09.031Z,65.80
2023-05-17T16:23:16.416Z,67.00
2023-05-17T16:25:27.356Z,67.30
2023-05-17T16:27:34.927Z,68.90
2023-05-17T16:29:42.578Z,69.70
2023-05-17T16:31:52.414Z,69.70
2023-05-17T16:33:59.731Z,69.40
2023-05-17T16:36:07.854Z,67.90
2023-05-17T16:38:15.394Z,67.20
2023-05-17T16:40:24.526Z,68.10
2023-05-17T16:42:32.372Z,68.60
2023-05-17T16:44:39.761Z,67.80
2023-05-17T16:46:47.315Z,67.90
2023-05-17T16:48:54.986Z,68.60
2023-05-17T16:51:02.577Z,69.50
2023-05-17T16:53:10.068Z,69.70
2023-05-17T16:55:17.401Z,70.10
2023-05-17T16:57:26.484Z,69.80
2023-05-17T16:59:34.223Z,69.10
2023-05-17T17:01:41.597Z,69.40
2023-05-17T17:03:49.535Z,68.60
2023-05-17T17:05:56.842Z,68.30
2023-05-17T17:08:04.441Z,67.80
2023-05-17T17:10:12.689Z,67.00
2023-05-17T17:12:24.705Z,66.60
2023-05-17T17:14:34.839Z,65.90
2023-05-17T17:16:42.821Z,65.50
2023-05-17T17:18:50.647Z,65.10
2023-05-17T17:20:58.373Z,64.90
2023-05-17T17:23:05.337Z,64.50
2023-05-17T17:25:13.466Z,64.30
2023-05-17T17:27:20.534Z,64.20
2023-05-17T17:29:27.866Z,64.10
2023-05-17T17:31:37.151Z,63.90
2023-05-17T17:33:44.787Z,63.80
2023-05-17T17:35:52.333Z,63.90
2023-05-17T17:37:59.771Z,63.90
2023-05-17T17:40:07.111Z,63.90
2023-05-17T17:42:14.766Z,63.90
2023-05-17T17:44:21.793Z,63.80
2023-05-17T17:46:31.035Z,63.80
2023-05-17T17:48:40.034Z,64.00
2023-05-17T17:50:47.677Z,64.60
2023-05-17T17:52:55.062Z,64.50
2023-05-17T17:55:02.604Z,64.60
2023-05-17T17:57:09.941Z,64.50
2023-05-17T17:59:17.288Z,64.60
2023-05-17T18:01:24.754Z,64.50
2023-05-17T18:03:32.308Z,64.40
2023-05-17T18:05:41.030Z,64.60
2023-05-17T18:07:48.507Z,65.40
2023-05-17T18:09:55.534Z,65.90
2023-05-17T18:12:02.870Z,66.00
2023-05-17T18:14:09.952Z,65.80
2023-05-17T18:16:17.661Z,65.90
2023-05-17T18:18:25.033Z,66.60
2023-05-17T18:20:32.654Z,67.10
2023-05-17T18:22:41.647Z,66.90
2023-05-17T18:24:49.188Z,66.70
2023-05-17T18:26:56.522Z,67.30
2023-05-17T18:29:05.086Z,69.00
2023-05-17T18:31:12.422Z,69.40
2023-05-17T18:33:20.213Z,68.80
2023-05-17T18:35:27.402Z,69.00
2023-05-17T18:37:34.833Z,69.40
2023-05-17T18:39:43.980Z,69.60
2023-05-17T18:41:51.408Z,70.80
2023-05-17T18:44:02.725Z,71.10
2023-05-17T18:46:09.343Z,71.10
2023-05-17T18:48:16.668Z,72.50
2023-05-17T18:50:24.222Z,72.20
2023-05-17T18:52:31.606Z,72.50
2023-05-17T18:54:38.904Z,72.40
2023-05-17T18:56:47.815Z,72.70
2023-05-17T18:58:55.659Z,71.70
2023-05-17T19:01:03.641Z,71.10
2023-05-17T19:03:11.195Z,70.80
2023-05-17T19:05:18.290Z,70.50
2023-05-17T19:07:25.718Z,70.90
2023-05-17T19:09:33.088Z,71.70
2023-05-17T19:11:40.601Z,71.90
2023-05-17T19:13:49.320Z,72.80
2023-05-17T19:15:56.546Z,73.50
2023-05-17T19:18:03.711Z,73.80
2023-05-17T19:20:13.511Z,73.00
2023-05-17T19:22:20.651Z,72.10
2023-05-17T19:24:27.676Z,71.60
2023-05-17T19:26:35.116Z,70.90
2023-05-17T19:28:42.351Z,70.30
2023-05-17T19:30:51.835Z,70.50
2023-05-17T19:32:59.189Z,70.30
2023-05-17T19:35:06.707Z,70.40
2023-05-17T19:37:14.103Z,71.60
2023-05-17T19:39:21.689Z,72.30
2023-05-17T19:41:29.391Z,73.00
2023-05-17T19:43:37.999Z,73.20
2023-05-17T19:45:45.280Z,73.70
2023-05-17T19:47:54.859Z,73.50
2023-05-17T19:50:02.463Z,74.60
2023-05-17T19:52:10.614Z,75.50
2023-05-17T19:54:17.947Z,75.80
2023-05-17T19:56:26.430Z,76.00
2023-05-17T19:58:33.393Z,76.30
2023-05-17T20:00:40.829Z,76.30
2023-05-17T20:02:49.524Z,76.10
2023-05-17T20:04:58.782Z,75.90
2023-05-17T20:07:06.120Z,75.50
2023-05-17T20:09:13.756Z,76.60
2023-05-17T20:11:21.089Z,76.20
2023-05-17T20:13:29.858Z,75.90
2023-05-17T20:15:36.985Z,76.50
2023-05-17T20:17:45.173Z,77.10
2023-05-17T20:19:53.600Z,76.50
2023-05-17T20:22:03.248Z,75.80
2023-05-17T20:24:11.083Z,74.30
2023-05-17T20:26:20.057Z,73.70
2023-05-17T20:28:27.189Z,73.00
2023-05-17T20:30:34.724Z,73.10
2023-05-17T20:32:42.212Z,74.20
2023-05-17T20:34:49.553Z,74.90
2023-05-17T20:36:57.348Z,74.60
2023-05-17T20:39:06.316Z,74.70
2023-05-17T20:41:15.981Z,74.20
2023-05-17T20:43:29.835Z,74.60
2023-05-17T20:45:37.509Z,74.10
2023-05-17T20:47:44.744Z,74.50
2023-05-17T20:49:52.774Z,75.40
2023-05-17T20:52:05.487Z,76.30
2023-05-17T20:54:14.495Z,77.00
2023-05-17T20:56:21.493Z,77.70
2023-05-17T20:58:30.005Z,78.30
2023-05-17T21:00:37.490Z,78.40
2023-05-17T21:02:45.047Z,78.60
2023-05-17T21:04:52.161Z,78.80
2023-05-17T21:07:00.141Z,79.80
2023-05-17T21:09:07.496Z,79.80
2023-05-17T21:11:22.054Z,80.20
2023-05-17T21:13:29.642Z,80.60
2023-05-17T21:15:37.436Z,81.10
2023-05-17T21:17:44.664Z,81.50
2023-05-17T21:19:52.211Z,81.30
2023-05-17T21:21:59.292Z,81.40
2023-05-17T21:24:06.684Z,81.40
2023-05-17T21:26:15.460Z,82.00
2023-05-17T21:28:23.598Z,81.90
2023-05-17T21:30:31.873Z,81.70
2023-05-17T21:32:39.832Z,82.10
2023-05-17T21:34:48.322Z,82.20
2023-05-17T21:37:02.726Z,82.30
2023-05-17T21:39:16.403Z,82.40
2023-05-17T21:41:26.779Z,82.00
2023-05-17T21:43:35.583Z,81.70
2023-05-17T21:45:50.900Z,81.70
2023-05-17T21:47:59.548Z,81.00
2023-05-17T21:50:09.159Z,81.60
2023-05-17T21:52:21.253Z,81.70
2023-05-17T21:54:32.022Z,82.20
2023-05-17T21:56:47.346Z,82.50
2023-05-17T21:58:57.093Z,82.70
2023-05-17T22:01:06.360Z,82.50
2023-05-17T22:03:15.078Z,82.90
2023-05-17T22:05:26.104Z,82.80
2023-05-17T22:07:35.639Z,82.20
2023-05-17T22:09:46.589Z,82.30
2023-05-17T22:12:00.707Z,81.00
2023-05-17T22:14:12.186Z,79.90
2023-05-17T22:16:26.593Z,79.90
2023-05-17T22:18:36.605Z,80.20
2023-05-17T22:20:50.574Z,80.90
2023-05-17T22:22:59.191Z,81.90
2023-05-17T22:25:10.162Z,83.20
2023-05-17T22:27:20.108Z,83.50
2023-05-17T22:29:29.643Z,83.60
2023-05-17T22:31:40.529Z,83.80
2023-05-17T22:33:48.770Z,83.90
2023-05-17T22:35:58.259Z,84.30
2023-05-17T22:38:06.156Z,84.60
2023-05-17T22:40:15.958Z,84.80
2023-05-17T22:42:31.179Z,85.10
2023-05-17T22:44:42.811Z,85.00
2023-05-17T22:46:54.137Z,85.20
2023-05-17T22:49:11.862Z,85.50
2023-05-17T22:51:19.850Z,85.50
2023-05-17T22:53:27.100Z,85.60
2023-05-17T22:55:34.771Z,85.50
2023-05-17T22:57:43.559Z,85.60
2023-05-17T22:59:50.799Z,86.10
2023-05-17T23:01:57.805Z,85.70
2023-05-17T23:04:05.171Z,85.70
2023-05-17T23:06:12.859Z,85.60
2023-05-17T23:08:23.415Z,85.90
2023-05-17T23:10:30.704Z,85.20
2023-05-17T23:12:38.212Z,84.70
2023-05-17T23:14:46.914Z,84.40
2023-05-17T23:16:54.379Z,84.70
2023-05-17T23:19:01.536Z,84.80
2023-05-17T23:21:08.787Z,84.80
2023-05-17T23:23:16.526Z,84.70
2023-05-17T23:25:24.087Z,84.50
2023-05-17T23:27:31.319Z,84.10
2023-05-17T23:29:39.062Z,83.90
2023-05-17T23:31:49.725Z,83.60
2023-05-17T23:33:57.572Z,82.90
2023-05-17T23:36:05.214Z,82.30
2023-05-17T23:38:12.558Z,82.20
2023-05-17T23:40:20.010Z,82.40
2023-05-17T23:42:27.483Z,82.60
2023-05-17T23:44:38.960Z,82.60
2023-05-17T23:46:47.892Z,81.90
2023-05-17T23:48:55.224Z,80.70
2023-05-17T23:51:02.433Z,80.00
2023-05-17T23:53:10.655Z,79.00
2023-05-17T23:55:17.952Z,78.00
2023-05-17T23:57:25.274Z,77.80
2023-05-17T23:59:33.686Z,77.30
